Flight Track Log - Related Links

Times and Time Zones

All times are in EST time to prevent confusion due to time zone crossing. See the PDT4226 flight status page for this flight to view local times or setup timezone preferences in your user account.

Time Position Orientation Groundspeed Altitude Reporting Facility
EST Latitude Longitude Course Direction KTS MPH feet Rate Location/Type
Thu 11:52:36 AM 39.9000 -75.2333 323° Northwest 123 142 600  Level Philadelphia TRACON
Thu 11:52:54 AM 39.9000 -75.2500 270° West 125 144 1,200 1,667 Climbing Philadelphia TRACON
Thu 11:53:48 AM 39.9167 -75.3000 294° West 151 174 2,600 1,421 Climbing Philadelphia TRACON
Thu 11:54:48 AM 39.9333 -75.3333 303° West 148 170 3,900 1,300 Climbing Philadelphia TRACON
Thu 11:55:00 AM 40.0303 -75.3803 323° Northwest  Level FlightAware Approximate
Thu 11:55:48 AM 39.9500 -75.3833 294° West 150 173 5,200  Level Philadelphia TRACON
Thu 11:56:00 AM 40.0872 -75.4269 339° North  Level FlightAware Approximate
Thu 11:56:48 AM 39.9667 -75.4333 294° West 144 166 6,300  Level Philadelphia TRACON
Thu 11:57:00 AM 40.1353 -75.4853 323° Northwest  Level FlightAware Approximate
Thu 11:57:42 AM 39.9833 -75.4833 294° West 155 178 7,300  Level Philadelphia TRACON
Thu 11:58:42 AM 40.0333 -75.4833 360° North 173 199 8,500 893 Climbing Philadelphia TRACON
Thu 11:59:43 AM 40.0747 -75.5072 336° Northwest 197 227 9,100 942 Climbing New York Center
Thu 12:00:43 PM 40.1283 -75.5244 346° North 191 220 10,400 1,150 Climbing New York Center
Thu 12:01:43 PM 40.1753 -75.5439 342° North 186 214 11,400 850 Climbing New York Center
Thu 12:02:43 PM 40.2350 -75.5617 347° North 191 220 12,100 350 Climbing New York Center
Thu 12:03:43 PM 40.2839 -75.5894 337° Northwest 202 232 12,100  Level New York Center
Thu 12:04:43 PM 40.3519 -75.6078 348° North 229 264 12,100  Level New York Center
Thu 12:05:43 PM 40.4286 -75.6214 352° North 247 284 12,100  Level New York Center
Thu 12:06:43 PM 40.4969 -75.6317 353° North 252 290 12,100  Level New York Center
Thu 12:07:43 PM 40.5650 -75.6475 350° North 252 290 12,100  Level New York Center
Thu 12:08:43 PM 40.6269 -75.6600 351° North 252 290 12,100  Level New York Center
Thu 12:09:43 PM 40.6975 -75.6706 354° North 252 290 12,100  Level New York Center
Thu 12:10:43 PM 40.7758 -75.6872 351° North 257 296 12,100  Level New York Center
Thu 12:11:43 PM 40.8442 -75.7031 350° North 257 296 12,100  Level New York Center
Thu 12:12:43 PM 40.9144 -75.7164 352° North 257 296 12,100  Level New York Center
Thu 12:13:44 PM 40.9761 -75.7319 349° North 257 296 12,100 -50 Level New York Center
Thu 12:14:43 PM 41.0547 -75.7458 352° North 257 296 12,000 -151 Descending New York Center
Thu 12:15:43 PM 41.1292 -75.7569 354° North 257 296 11,800 -500 Descending New York Center
Thu 12:16:43 PM 41.2014 -75.7786 347° North 262 302 11,000 -850 Descending New York Center
Thu 12:17:43 PM 41.2797 -75.7928 352° North 268 308 10,100 -500 Descending New York Center
Thu 12:18:43 PM 41.3544 -75.8011 355° North 268 308 10,000 -50 Descending New York Center
Thu 12:19:43 PM 41.4225 -75.8172 350° North 268 308 10,000 -400 Level New York Center
Thu 12:20:43 PM 41.4925 -75.8364 348° North 263 303 9,200 -900 Descending New York Center
Thu 12:21:43 PM 41.5669 -75.8475 354° North 263 303 8,200 -550 Descending New York Center
Thu 12:22:43 PM 41.6308 -75.8636 349° North 263 303 8,100 -50 Descending New York Center
Thu 12:23:43 PM 41.6969 -75.8797 350° North 250 288 8,100 -150 Level New York Center
Thu 12:24:43 PM 41.7711 -75.8936 352° North 245 282 7,800 -650 Descending New York Center
Thu 12:25:43 PM 41.8411 -75.9131 348° North 245 282 6,800 -984 Descending New York Center
Thu 12:26:45 PM 41.9111 -75.9297 350° North 251 289 5,800 -1,000 Descending New York Center
Thu 12:27:43 PM 41.9711 -75.9400 353° North 251 289 4,800 -915 Descending New York Center
Thu 12:28:43 PM 42.0319 -75.9278 North 239 275 4,000 -550 Descending New York Center
Thu 12:29:43 PM 42.0950 -75.9161 North 223 257 3,700 -450 Descending New York Center
Thu 12:30:43 PM 42.1406 -75.9253 352° North 189 217 3,100 -650 Descending New York Center
Thu 12:31:43 PM 42.1706 -75.9528 326° Northwest 143 165 2,400 -500 Descending New York Center
Thu 12:32:43 PM 42.2092 -75.9697 342° North 136 157 2,100 -300 Descending New York Center

Login

Don't have an account? Register now (free) for customized features, flight alerts, and more!